Time;durP1;ratioP1;P1;durP2;ratioP2;P2;SDS_P1;SDS_P2;PMS_P1;PMS_P2;Temp;Humidity;BMP_temperature;BMP_pressure;BME280_temperature;BME280_humidity;BME280_pressure;Samples;Min_cycle;Max_cycle;Signal;HPM_P1;HPM_P2
2021/12/19 00:01:32;;;;;;;11.83;6.33;;;8.00;99.90;;;;;;5051692;28;20739;-67
2021/12/19 00:04:15;;;;;;;14.17;6.50;;;8.00;99.90;;;;;;5050677;28;20590;-67
2021/12/19 00:09:28;;;;;;;13.27;6.77;;;8.00;99.90;;;;;;5052419;28;20733;-67
2021/12/19 00:11:56;;;;;;;10.57;6.13;;;8.00;99.90;;;;;;5056151;28;20671;-67
2021/12/19 00:14:23;;;;;;;9.50;5.80;;;8.00;99.90;;;;;;5064248;28;20293;-67
2021/12/19 00:16:50;;;;;;;9.40;5.87;;;7.90;99.90;;;;;;5058785;28;20201;-67
2021/12/19 00:19:19;;;;;;;9.30;5.80;;;7.90;99.90;;;;;;5051443;28;20207;-67
2021/12/19 00:21:46;;;;;;;9.57;5.83;;;7.90;99.90;;;;;;5050498;28;20636;-67
2021/12/19 00:24:13;;;;;;;10.23;5.93;;;7.90;99.90;;;;;;5052979;28;20207;-67
2021/12/19 00:26:40;;;;;;;8.20;5.30;;;7.80;99.90;;;;;;5054091;28;20215;-67
2021/12/19 00:29:07;;;;;;;9.17;5.83;;;7.90;99.90;;;;;;5055086;28;20202;-67
2021/12/19 00:31:34;;;;;;;10.90;5.97;;;7.80;99.90;;;;;;5055250;28;20645;-67
2021/12/19 00:34:02;;;;;;;9.70;5.97;;;7.80;99.90;;;;;;5054618;28;20198;-67
2021/12/19 00:36:30;;;;;;;8.80;5.63;;;7.80;99.90;;;;;;5055052;28;20203;-67
2021/12/19 00:38:58;;;;;;;10.30;5.97;;;7.80;99.90;;;;;;5054171;28;20206;-67
2021/12/19 00:41:25;;;;;;;9.67;6.30;;;7.70;99.90;;;;;;5054335;28;20203;-67
2021/12/19 00:43:55;;;;;;;9.87;6.33;;;7.70;99.90;;;;;;5053916;28;20206;-67
2021/12/19 00:46:24;;;;;;;10.83;6.57;;;7.70;99.90;;;;;;5053875;28;20222;-67
2021/12/19 00:48:55;;;;;;;11.60;6.80;;;7.70;99.90;;;;;;5054248;28;20223;-67
2021/12/19 00:51:24;;;;;;;9.97;6.03;;;7.70;99.90;;;;;;5054619;28;20219;-67
2021/12/19 00:53:54;;;;;;;10.43;6.57;;;7.70;99.90;;;;;;5043019;28;20207;-67
2021/12/19 00:56:21;;;;;;;11.20;6.90;;;7.70;99.90;;;;;;5054951;28;20205;-67
2021/12/19 00:58:49;;;;;;;11.60;6.60;;;7.70;99.90;;;;;;5059794;28;20203;-67
2021/12/19 01:01:17;;;;;;;11.73;6.83;;;7.60;99.90;;;;;;5054151;28;20210;-67
2021/12/19 01:03:46;;;;;;;13.10;7.53;;;7.60;99.90;;;;;;5053699;28;20203;-67
2021/12/19 01:06:16;;;;;;;10.30;6.87;;;7.60;99.90;;;;;;5054137;28;20262;-67
2021/12/19 01:08:43;;;;;;;12.13;7.30;;;7.60;99.90;;;;;;5054101;28;20253;-67
2021/12/19 01:11:11;;;;;;;13.70;7.47;;;7.60;99.90;;;;;;5054017;28;20210;-66
2021/12/19 01:13:38;;;;;;;12.77;7.83;;;7.60;99.90;;;;;;5060761;28;20465;-67
2021/12/19 01:16:06;;;;;;;13.00;7.27;;;7.60;99.90;;;;;;5069458;28;20202;-67
2021/12/19 01:18:33;;;;;;;12.43;7.60;;;7.60;99.90;;;;;;5053719;28;20206;-67
2021/12/19 01:20:59;;;;;;;14.67;8.30;;;7.60;99.90;;;;;;5054016;28;20199;-67
2021/12/19 01:23:26;;;;;;;14.53;7.80;;;7.60;99.90;;;;;;5053378;28;20289;-67
2021/12/19 01:25:58;;;;;;;11.47;7.50;;;7.60;99.90;;;;;;5053996;28;20219;-67
2021/12/19 01:28:26;;;;;;;12.30;7.70;;;7.60;99.90;;;;;;5053210;28;20203;-67
2021/12/19 01:30:53;;;;;;;13.30;7.67;;;7.50;99.90;;;;;;5054058;28;20210;-67
2021/12/19 01:33:19;;;;;;;13.10;7.63;;;7.50;99.90;;;;;;5053695;28;20222;-67
2021/12/19 01:35:46;;;;;;;14.83;7.70;;;7.60;99.90;;;;;;5050356;28;20215;-67
2021/12/19 01:38:13;;;;;;;13.40;6.97;;;7.60;99.90;;;;;;5054353;28;20203;-67
2021/12/19 01:40:40;;;;;;;12.30;6.83;;;7.60;99.90;;;;;;5060641;28;20207;-67
2021/12/19 01:43:07;;;;;;;13.07;6.97;;;7.60;99.90;;;;;;5053447;28;20213;-67
2021/12/19 01:45:38;;;;;;;12.57;6.17;;;7.60;99.90;;;;;;5036331;28;20503;-67
2021/12/19 01:48:09;;;;;;;9.90;6.17;;;7.60;99.90;;;;;;5055478;28;20199;-67
2021/12/19 01:50:37;;;;;;;9.63;5.30;;;7.60;99.90;;;;;;5073687;28;20202;-67
2021/12/19 01:53:06;;;;;;;10.60;6.03;;;7.60;99.90;;;;;;5063917;28;20661;-67
2021/12/19 01:55:34;;;;;;;12.20;6.20;;;7.60;99.90;;;;;;5053282;28;20412;-67
2021/12/19 01:58:01;;;;;;;10.30;6.47;;;7.60;99.90;;;;;;5053346;28;20672;-67
2021/12/19 02:00:32;;;;;;;9.50;5.67;;;7.60;99.90;;;;;;5053245;28;20205;-67
2021/12/19 02:03:00;;;;;;;12.00;5.90;;;7.60;99.90;;;;;;5045607;28;20195;-67
2021/12/19 02:05:28;;;;;;;8.57;5.30;;;7.60;99.90;;;;;;5053770;28;20207;-67
2021/12/19 02:07:57;;;;;;;12.50;5.70;;;7.60;99.90;;;;;;5052700;28;20696;-67
2021/12/19 02:10:26;;;;;;;9.20;5.47;;;7.60;99.90;;;;;;5053244;28;20667;-67
2021/12/19 02:12:54;;;;;;;8.83;5.27;;;7.60;99.90;;;;;;5066921;28;20210;-67
2021/12/19 02:15:26;;;;;;;10.80;5.77;;;7.60;99.90;;;;;;5073564;28;20205;-67
2021/12/19 02:17:57;;;;;;;9.23;4.83;;;7.70;99.90;;;;;;5064747;28;20187;-67
2021/12/19 02:20:31;;;;;;;10.53;5.23;;;7.70;99.90;;;;;;5052518;28;20199;-67
2021/12/19 02:22:58;;;;;;;10.20;5.10;;;7.70;99.90;;;;;;5053578;28;20198;-67
2021/12/19 02:25:25;;;;;;;11.53;6.30;;;7.70;99.90;;;;;;5063488;28;20199;-67
2021/12/19 02:27:52;;;;;;;11.20;5.60;;;7.70;99.90;;;;;;5052082;28;20238;-67
2021/12/19 02:30:19;;;;;;;8.90;5.67;;;7.70;99.90;;;;;;5055683;28;20212;-67
2021/12/19 02:32:46;;;;;;;11.23;6.00;;;7.70;99.90;;;;;;5065094;28;20202;-67
2021/12/19 02:35:19;;;;;;;9.93;5.03;;;7.70;99.90;;;;;;5051501;28;20575;-67
2021/12/19 02:38:14;;;;;;;8.23;5.40;;;7.70;99.90;;;;;;5052739;28;20640;-67
2021/12/19 02:48:51;;;;;;;11.47;5.40;;;7.70;99.90;;;;;;5052189;28;20202;-67
2021/12/19 02:51:18;;;;;;;9.03;5.13;;;7.70;99.90;;;;;;5051530;28;20199;-67
2021/12/19 02:53:46;;;;;;;10.10;5.83;;;7.70;99.90;;;;;;5060288;28;20208;-66
2021/12/19 02:56:14;;;;;;;9.60;5.23;;;7.70;99.90;;;;;;5055792;28;20191;-66
2021/12/19 02:58:43;;;;;;;11.50;5.30;;;7.70;99.90;;;;;;5059781;28;20225;-67
2021/12/19 03:01:14;;;;;;;9.77;5.30;;;7.70;99.90;;;;;;5071986;28;20206;-66
2021/12/19 03:03:41;;;;;;;11.00;5.70;;;7.70;99.90;;;;;;5050980;28;20201;-66
2021/12/19 03:06:08;;;;;;;10.33;5.53;;;7.70;99.90;;;;;;5052281;28;20593;-66
2021/12/19 03:08:41;;;;;;;10.13;5.60;;;7.70;99.90;;;;;;5051444;28;20195;-67
2021/12/19 03:19:20;;;;;;;10.13;5.70;;;7.70;99.90;;;;;;5051653;28;20269;-66
2021/12/19 03:21:47;;;;;;;10.27;5.07;;;7.70;99.90;;;;;;5051460;28;20203;-66
2021/12/19 03:24:14;;;;;;;9.00;5.30;;;7.70;99.90;;;;;;5051385;28;20199;-66
2021/12/19 03:26:43;;;;;;;8.03;4.73;;;7.70;99.90;;;;;;5056125;28;20239;-66
2021/12/19 03:29:10;;;;;;;10.63;5.97;;;7.80;99.90;;;;;;5053405;28;20207;-66
2021/12/19 03:31:37;;;;;;;13.17;5.90;;;7.80;99.90;;;;;;5054660;28;20206;-66
2021/12/19 03:34:04;;;;;;;10.23;5.37;;;7.80;99.90;;;;;;5057925;28;20297;-66
2021/12/19 03:36:31;;;;;;;14.77;6.00;;;7.80;99.90;;;;;;5049794;28;20191;-66
2021/12/19 03:39:01;;;;;;;11.50;5.90;;;7.80;99.90;;;;;;5051013;28;20202;-66
2021/12/19 03:41:34;;;;;;;11.93;5.50;;;7.80;99.90;;;;;;5051850;28;20614;-66
2021/12/19 03:44:03;;;;;;;11.03;5.37;;;7.80;99.90;;;;;;5046410;28;20280;-66
2021/12/19 03:46:30;;;;;;;11.23;6.60;;;7.80;99.90;;;;;;5051046;28;20223;-66
2021/12/19 03:48:57;;;;;;;10.17;5.60;;;7.80;99.90;;;;;;5060452;28;20677;-67
2021/12/19 03:51:25;;;;;;;11.23;5.87;;;7.80;99.90;;;;;;5071530;28;20210;-66
2021/12/19 03:53:51;;;;;;;11.97;5.53;;;7.80;99.90;;;;;;5058769;28;20246;-66
2021/12/19 03:56:18;;;;;;;10.13;5.47;;;7.80;99.90;;;;;;5051662;28;20213;-66
2021/12/19 03:58:46;;;;;;;12.37;6.17;;;7.80;99.90;;;;;;5058606;28;20209;-66
2021/12/19 04:01:14;;;;;;;9.37;5.70;;;7.80;99.90;;;;;;5055710;28;20227;-66
2021/12/19 04:03:41;;;;;;;9.93;5.97;;;7.80;99.90;;;;;;5058586;28;20703;-66
2021/12/19 04:06:09;;;;;;;10.40;5.47;;;7.80;99.90;;;;;;5055413;28;20207;-66
2021/12/19 04:08:36;;;;;;;8.77;5.17;;;7.80;99.90;;;;;;5054730;28;20203;-66
2021/12/19 04:11:03;;;;;;;10.30;5.27;;;7.80;99.90;;;;;;5055155;28;20560;-67
2021/12/19 04:13:29;;;;;;;9.10;4.63;;;7.70;99.90;;;;;;5055200;28;20211;-66
2021/12/19 04:15:56;;;;;;;9.90;5.03;;;7.70;99.90;;;;;;5055525;28;20213;-66
2021/12/19 04:18:24;;;;;;;11.17;5.43;;;7.70;99.90;;;;;;5055035;28;20195;-66
2021/12/19 04:20:51;;;;;;;8.23;4.47;;;7.70;99.90;;;;;;5055584;28;20210;-66
2021/12/19 04:23:19;;;;;;;8.27;4.17;;;7.70;99.90;;;;;;5054872;28;20199;-66
2021/12/19 04:25:46;;;;;;;13.30;5.53;;;7.70;99.90;;;;;;5054456;28;20202;-66
2021/12/19 04:28:13;;;;;;;9.90;4.40;;;7.70;99.90;;;;;;5054977;28;20223;-66
2021/12/19 04:30:40;;;;;;;7.70;4.47;;;7.70;99.90;;;;;;5062298;28;20218;-66
2021/12/19 04:33:10;;;;;;;8.33;4.80;;;7.80;99.90;;;;;;5054211;28;20203;-66
2021/12/19 04:35:44;;;;;;;8.23;4.23;;;7.70;99.90;;;;;;5073965;28;20260;-66
2021/12/19 04:41:34;;;;;;;7.83;3.97;;;7.70;99.90;;;;;;5036358;28;20209;-66
2021/12/19 04:44:30;;;;;;;7.40;4.30;;;7.70;99.90;;;;;;5054267;28;20202;-66
2021/12/19 04:55:38;;;;;;;6.23;3.57;;;7.70;99.90;;;;;;5053062;28;20282;-66
2021/12/19 04:58:20;;;;;;;6.30;3.60;;;7.70;99.90;;;;;;5049401;28;20271;-66
2021/12/19 05:00:57;;;;;;;7.13;3.80;;;7.70;99.90;;;;;;5067085;28;20241;-66
2021/12/19 05:03:33;;;;;;;6.80;3.57;;;7.70;99.90;;;;;;5053446;28;20206;-66
2021/12/19 05:06:07;;;;;;;8.67;4.07;;;7.70;99.90;;;;;;5060496;28;20201;-66
2021/12/19 05:14:11;;;;;;;6.87;3.67;;;7.70;99.90;;;;;;5053670;28;20247;-66
2021/12/19 05:16:41;;;;;;;6.83;3.67;;;7.70;99.90;;;;;;5055014;28;20198;-66
2021/12/19 05:19:19;;;;;;;7.17;3.70;;;7.70;99.90;;;;;;5055627;28;20249;-66
2021/12/19 05:21:46;;;;;;;8.50;4.13;;;7.70;99.90;;;;;;5052692;28;20195;-66
2021/12/19 05:24:31;;;;;;;7.20;3.80;;;7.70;99.90;;;;;;5054230;28;20290;-66
2021/12/19 05:26:59;;;;;;;7.17;3.93;;;7.70;99.90;;;;;;5056456;28;20225;-66
2021/12/19 05:29:25;;;;;;;8.27;3.83;;;7.70;99.90;;;;;;5063246;28;20206;-66
2021/12/19 05:31:52;;;;;;;7.07;3.60;;;7.70;99.90;;;;;;5059640;28;20208;-66
2021/12/19 05:34:19;;;;;;;10.37;4.47;;;7.70;99.90;;;;;;5057460;28;20210;-66
2021/12/19 05:45:13;;;;;;;8.07;4.43;;;7.80;99.90;;;;;;5053391;28;20238;-66
2021/12/19 05:47:40;;;;;;;10.73;5.37;;;7.80;99.90;;;;;;5052706;28;20218;-67
2021/12/19 05:50:08;;;;;;;8.97;5.07;;;7.80;99.90;;;;;;5053073;28;20548;-66
2021/12/19 05:52:34;;;;;;;10.73;5.37;;;7.80;99.90;;;;;;5053457;28;20191;-67
2021/12/19 05:55:03;;;;;;;11.73;5.37;;;7.80;99.90;;;;;;5054020;28;20199;-66
2021/12/19 05:57:30;;;;;;;10.37;5.53;;;7.80;99.90;;;;;;5053433;28;20558;-66
2021/12/19 05:59:57;;;;;;;11.27;6.20;;;7.80;99.90;;;;;;5053943;28;20671;-66
2021/12/19 06:02:24;;;;;;;14.23;7.13;;;7.80;99.90;;;;;;5054873;28;20245;-66
2021/12/19 06:04:50;;;;;;;13.27;5.73;;;7.80;99.90;;;;;;5054884;28;20559;-66
2021/12/19 06:07:17;;;;;;;13.00;6.60;;;7.80;99.90;;;;;;5054240;28;20230;-66
2021/12/19 06:09:44;;;;;;;12.90;6.53;;;7.80;99.90;;;;;;5055815;28;20630;-66
2021/12/19 06:12:13;;;;;;;14.43;6.30;;;7.80;99.90;;;;;;5051916;28;20210;-66
2021/12/19 06:14:39;;;;;;;11.97;6.50;;;7.80;99.90;;;;;;5052198;28;20195;-67
2021/12/19 06:17:06;;;;;;;13.70;6.63;;;7.80;99.90;;;;;;5055697;28;20624;-67
2021/12/19 06:19:36;;;;;;;26.23;8.00;;;7.80;99.90;;;;;;5054042;28;20641;-66
2021/12/19 06:22:04;;;;;;;11.87;6.50;;;7.70;99.90;;;;;;5052975;28;20268;-67
2021/12/19 06:24:32;;;;;;;13.90;7.27;;;7.70;99.90;;;;;;5053482;28;20203;-66
2021/12/19 06:26:59;;;;;;;12.53;6.77;;;7.70;99.90;;;;;;5055441;28;20218;-66
2021/12/19 06:29:27;;;;;;;17.20;7.77;;;7.70;99.90;;;;;;5054084;28;20258;-66
2021/12/19 06:31:55;;;;;;;17.60;7.63;;;7.70;99.90;;;;;;5054378;28;20199;-66
2021/12/19 06:34:22;;;;;;;15.80;7.37;;;7.70;99.90;;;;;;5061752;28;20210;-66
2021/12/19 06:36:51;;;;;;;13.20;7.57;;;7.70;99.90;;;;;;5051570;28;20200;-69
2021/12/19 06:39:18;;;;;;;17.03;7.80;;;7.70;99.90;;;;;;5056357;28;20652;-66
2021/12/19 06:41:45;;;;;;;17.70;7.53;;;7.70;99.90;;;;;;5056603;28;20656;-71
2021/12/19 06:44:12;;;;;;;13.70;7.53;;;7.70;99.90;;;;;;5052035;28;20208;-72
2021/12/19 06:46:40;;;;;;;14.73;7.80;;;7.70;99.90;;;;;;5052235;28;20660;-72
2021/12/19 06:49:07;;;;;;;19.87;8.43;;;7.70;99.90;;;;;;5062182;28;20590;-72
2021/12/19 06:51:35;;;;;;;15.73;7.47;;;7.70;99.90;;;;;;5059802;28;20218;-72
2021/12/19 06:54:03;;;;;;;15.80;6.93;;;7.70;99.90;;;;;;5049758;28;20305;-72
2021/12/19 06:56:31;;;;;;;15.33;7.40;;;7.70;99.90;;;;;;5054095;28;20209;-72
2021/12/19 06:58:58;;;;;;;18.93;8.33;;;7.70;99.90;;;;;;5054516;28;20195;-72
2021/12/19 07:01:25;;;;;;;14.60;7.03;;;7.70;99.90;;;;;;5051358;28;20210;-72
2021/12/19 07:03:53;;;;;;;14.00;6.87;;;7.70;99.90;;;;;;5052154;28;20203;-72
2021/12/19 07:06:20;;;;;;;16.17;6.70;;;7.70;99.90;;;;;;5052571;28;20644;-72
2021/12/19 07:08:47;;;;;;;14.00;6.83;;;7.70;99.90;;;;;;5052156;28;20459;-72
2021/12/19 07:11:14;;;;;;;13.10;6.43;;;7.70;99.90;;;;;;5050722;28;20206;-72
2021/12/19 07:13:41;;;;;;;12.97;6.70;;;7.70;99.90;;;;;;5059841;28;20636;-72
2021/12/19 07:16:08;;;;;;;14.87;6.87;;;7.70;99.90;;;;;;5062701;28;20209;-73
2021/12/19 07:18:37;;;;;;;13.40;6.87;;;7.70;99.90;;;;;;5071410;28;20202;-73
2021/12/19 07:21:05;;;;;;;13.63;7.17;;;7.70;99.90;;;;;;5064020;28;20207;-72
2021/12/19 07:23:32;;;;;;;13.43;5.87;;;7.70;99.90;;;;;;5052079;28;20207;-72
2021/12/19 07:26:00;;;;;;;13.90;6.57;;;7.70;99.90;;;;;;5050807;28;20194;-72
2021/12/19 07:28:27;;;;;;;15.43;6.33;;;7.70;99.90;;;;;;5056992;28;20222;-72
2021/12/19 07:30:56;;;;;;;12.10;6.53;;;7.70;99.90;;;;;;5064508;28;20233;-72
2021/12/19 07:33:23;;;;;;;14.53;6.50;;;7.70;99.90;;;;;;5055980;28;20202;-72
2021/12/19 07:35:50;;;;;;;10.87;6.17;;;7.70;99.90;;;;;;5070376;28;20198;-71
2021/12/19 07:38:25;;;;;;;9.97;5.07;;;7.60;99.90;;;;;;5058000;28;20679;-71
2021/12/19 07:40:54;;;;;;;15.97;5.67;;;7.60;99.90;;;;;;5059607;28;20676;-72
2021/12/19 07:43:22;;;;;;;11.53;5.97;;;7.70;99.90;;;;;;5057831;28;20724;-72
2021/12/19 07:45:48;;;;;;;11.57;5.53;;;7.60;99.90;;;;;;5060724;28;20207;-72
2021/12/19 07:48:15;;;;;;;14.00;5.80;;;7.60;99.90;;;;;;5066369;28;20228;-71
2021/12/19 07:50:42;;;;;;;11.73;5.37;;;7.60;99.90;;;;;;5056705;28;20194;-72
2021/12/19 07:53:09;;;;;;;11.40;5.33;;;7.70;99.90;;;;;;5065300;28;20213;-72
2021/12/19 07:55:38;;;;;;;11.87;5.60;;;7.70;99.90;;;;;;5056568;28;20217;-72
2021/12/19 07:58:05;;;;;;;9.37;5.10;;;7.70;99.90;;;;;;5057541;28;20203;-72
2021/12/19 08:00:32;;;;;;;10.67;5.10;;;7.70;99.90;;;;;;5062280;28;20218;-72
2021/12/19 08:02:59;;;;;;;6.87;4.30;;;7.70;99.90;;;;;;5052252;28;20206;-71
2021/12/19 08:05:26;;;;;;;8.83;4.03;;;7.60;99.90;;;;;;5060973;28;20206;-71
2021/12/19 08:07:59;;;;;;;6.93;4.33;;;7.60;99.90;;;;;;5059948;28;20219;-72
2021/12/19 08:13:12;;;;;;;6.43;4.03;;;7.60;99.90;;;;;;5058284;28;20577;-72
2021/12/19 08:15:39;;;;;;;5.93;4.00;;;7.60;99.90;;;;;;5058811;28;20668;-72
2021/12/19 08:18:07;;;;;;;5.47;3.37;;;7.60;99.90;;;;;;5058938;28;20198;-72
2021/12/19 08:20:34;;;;;;;8.73;4.23;;;7.60;99.90;;;;;;5059145;28;20221;-71
2021/12/19 08:23:01;;;;;;;6.73;3.80;;;7.60;99.90;;;;;;5057884;28;20205;-72
2021/12/19 08:25:28;;;;;;;9.03;4.07;;;7.60;99.90;;;;;;5059140;28;20199;-73
2021/12/19 08:27:55;;;;;;;8.47;3.80;;;7.60;99.90;;;;;;5055578;28;20223;-71
2021/12/19 08:30:24;;;;;;;7.30;3.43;;;7.60;99.90;;;;;;5059044;28;20245;-71
2021/12/19 08:32:53;;;;;;;8.00;3.97;;;7.60;99.90;;;;;;5059246;28;20643;-71
2021/12/19 08:35:20;;;;;;;8.67;4.90;;;7.60;99.90;;;;;;5058708;28;20206;-71
2021/12/19 08:37:46;;;;;;;8.40;4.03;;;7.60;99.90;;;;;;5058440;28;20195;-72
2021/12/19 08:40:13;;;;;;;12.70;4.73;;;7.60;99.90;;;;;;5061860;28;20653;-71
2021/12/19 08:42:40;;;;;;;10.20;4.53;;;7.70;99.90;;;;;;5062337;28;20555;-71
2021/12/19 08:45:08;;;;;;;15.27;4.80;;;7.60;99.90;;;;;;5053898;28;20217;-71
2021/12/19 08:47:37;;;;;;;7.50;4.10;;;7.70;99.90;;;;;;5055396;28;20270;-73
2021/12/19 08:50:05;;;;;;;11.87;4.83;;;7.70;99.90;;;;;;5055115;28;20199;-71
2021/12/19 08:52:32;;;;;;;11.17;4.70;;;7.70;99.90;;;;;;5056688;28;20206;-71
2021/12/19 08:54:59;;;;;;;10.10;4.70;;;7.70;99.90;;;;;;5055964;28;20194;-71
2021/12/19 08:57:26;;;;;;;9.87;4.20;;;7.70;99.90;;;;;;5056421;28;20225;-72
2021/12/19 08:59:53;;;;;;;8.03;3.90;;;7.70;99.90;;;;;;5051915;28;20206;-72
2021/12/19 09:02:20;;;;;;;12.07;4.63;;;7.70;99.90;;;;;;5054977;28;20214;-71
2021/12/19 09:04:48;;;;;;;13.43;4.53;;;7.70;99.90;;;;;;5054802;28;20209;-72
2021/12/19 09:07:15;;;;;;;13.43;5.53;;;7.70;99.90;;;;;;5052494;28;20291;-71
2021/12/19 09:09:43;;;;;;;10.17;5.70;;;7.70;99.90;;;;;;5056062;28;20306;-72
2021/12/19 09:12:10;;;;;;;13.13;4.90;;;7.70;99.90;;;;;;5054325;28;20461;-72
2021/12/19 09:14:37;;;;;;;8.07;4.63;;;7.70;99.90;;;;;;5055498;28;20211;-72
2021/12/19 09:17:04;;;;;;;9.07;4.57;;;7.80;99.90;;;;;;5056648;28;20245;-71
2021/12/19 09:19:31;;;;;;;8.20;5.07;;;7.70;99.90;;;;;;5055150;28;20203;-71
2021/12/19 09:21:59;;;;;;;7.93;4.77;;;7.70;99.90;;;;;;5052698;28;20217;-71
2021/12/19 09:24:26;;;;;;;13.17;6.20;;;7.80;99.90;;;;;;5053538;28;20202;-71
2021/12/19 09:26:53;;;;;;;11.83;4.60;;;7.80;99.90;;;;;;5057911;28;20213;-71
2021/12/19 09:29:20;;;;;;;7.33;4.23;;;7.80;99.90;;;;;;5053380;28;20356;-71
2021/12/19 09:31:47;;;;;;;9.07;4.03;;;7.80;99.90;;;;;;5052508;28;20214;-72
2021/12/19 09:34:14;;;;;;;8.50;4.40;;;7.80;99.90;;;;;;5069755;28;20202;-71
2021/12/19 09:36:40;;;;;;;7.93;4.90;;;7.80;99.90;;;;;;5056416;28;20210;-78
2021/12/19 09:39:09;;;;;;;12.90;5.43;;;7.80;99.90;;;;;;5049925;28;20202;-71
2021/12/19 09:41:43;;;;;;;8.43;5.03;;;7.70;99.90;;;;;;5055145;28;20210;-71
2021/12/19 09:44:11;;;;;;;9.57;4.63;;;7.70;99.90;;;;;;5046282;28;20687;-71
2021/12/19 09:46:40;;;;;;;10.43;5.00;;;7.70;99.90;;;;;;5054896;28;20570;-71
2021/12/19 09:49:09;;;;;;;7.20;4.40;;;7.70;99.90;;;;;;5052265;28;20318;-71
2021/12/19 09:51:36;;;;;;;10.13;4.77;;;7.70;99.90;;;;;;5054371;28;20203;-72
2021/12/19 09:54:04;;;;;;;12.03;5.20;;;7.70;99.90;;;;;;5054567;28;20223;-71
2021/12/19 09:56:34;;;;;;;12.80;5.63;;;7.70;99.90;;;;;;5058850;28;20206;-71
2021/12/19 09:59:01;;;;;;;9.93;5.27;;;7.70;99.90;;;;;;5063815;28;20202;-71
2021/12/19 10:01:28;;;;;;;12.20;5.47;;;7.70;99.90;;;;;;5055179;28;20199;-71
2021/12/19 10:03:55;;;;;;;17.43;6.10;;;7.70;99.90;;;;;;5051260;28;20227;-72
2021/12/19 10:06:24;;;;;;;9.97;5.27;;;7.70;99.90;;;;;;5056341;28;20209;-71
2021/12/19 10:09:08;;;;;;;11.87;5.20;;;7.70;99.90;;;;;;5055215;28;20590;-70
2021/12/19 10:11:47;;;;;;;11.37;4.33;;;7.70;99.90;;;;;;5049601;28;20213;-65
2021/12/19 10:14:28;;;;;;;8.53;4.00;;;7.60;99.90;;;;;;5058448;28;20197;-66
2021/12/19 10:16:55;;;;;;;8.03;3.93;;;7.70;99.90;;;;;;5053769;28;20209;-66
2021/12/19 10:19:22;;;;;;;8.33;4.77;;;7.70;99.90;;;;;;5054553;28;20198;-66
2021/12/19 10:21:49;;;;;;;9.60;4.43;;;7.70;99.90;;;;;;5052481;28;20297;-65
2021/12/19 10:24:32;;;;;;;8.70;3.97;;;7.70;99.90;;;;;;5055491;28;20207;-66
2021/12/19 10:27:00;;;;;;;7.27;3.80;;;7.60;99.90;;;;;;5051221;28;20203;-66
2021/12/19 10:29:43;;;;;;;6.87;3.53;;;7.60;99.90;;;;;;5065101;28;20228;-66
2021/12/19 10:32:10;;;;;;;9.53;3.97;;;7.60;99.90;;;;;;5052168;28;20206;-66
2021/12/19 10:34:37;;;;;;;12.63;5.40;;;7.60;99.90;;;;;;5055566;28;20210;-66
2021/12/19 10:37:05;;;;;;;14.10;5.43;;;7.60;99.90;;;;;;5052380;28;20668;-66
2021/12/19 10:39:37;;;;;;;9.83;4.63;;;7.60;99.90;;;;;;5056209;28;20203;-66
2021/12/19 10:42:06;;;;;;;10.50;5.13;;;7.60;99.90;;;;;;5055139;28;20207;-66
2021/12/19 10:47:22;;;;;;;7.70;3.57;;;7.60;99.90;;;;;;5055397;28;20209;-65
2021/12/19 10:49:49;;;;;;;7.07;3.90;;;7.60;99.90;;;;;;5048056;28;20219;-65
2021/12/19 10:52:32;;;;;;;9.20;3.53;;;7.60;99.90;;;;;;5059029;28;20201;-66
2021/12/19 10:55:00;;;;;;;6.13;2.97;;;7.60;99.90;;;;;;5050929;28;20199;-66
2021/12/19 10:57:34;;;;;;;5.73;3.07;;;7.60;99.90;;;;;;5049431;28;20199;-66
2021/12/19 11:00:01;;;;;;;5.63;3.47;;;7.60;99.90;;;;;;5052731;28;20210;-66
2021/12/19 11:02:40;;;;;;;9.17;3.17;;;7.70;99.90;;;;;;5050489;28;20199;-66
2021/12/19 11:05:08;;;;;;;5.83;3.20;;;7.60;99.90;;;;;;5059182;28;20644;-66
2021/12/19 11:07:36;;;;;;;5.57;3.30;;;7.70;99.90;;;;;;5072018;28;20289;-66
2021/12/19 11:10:24;;;;;;;6.73;3.27;;;7.70;99.90;;;;;;5061937;28;20227;-66
2021/12/19 11:13:09;;;;;;;5.27;2.93;;;7.70;99.90;;;;;;5052178;28;20225;-66
2021/12/19 11:15:36;;;;;;;4.97;2.80;;;7.60;99.90;;;;;;5058224;28;20558;-66
2021/12/19 11:18:04;;;;;;;8.33;3.10;;;7.60;99.90;;;;;;5050473;28;20556;-66
2021/12/19 11:20:31;;;;;;;5.50;2.47;;;7.60;99.90;;;;;;5051887;28;20203;-66
2021/12/19 11:22:58;;;;;;;5.13;3.03;;;7.60;99.90;;;;;;5050892;28;20201;-66
2021/12/19 11:25:25;;;;;;;4.13;2.73;;;7.60;99.90;;;;;;5051267;28;20649;-66
2021/12/19 11:27:52;;;;;;;5.37;3.17;;;7.60;99.90;;;;;;5049773;28;20225;-66
2021/12/19 11:30:21;;;;;;;6.73;2.80;;;7.60;99.90;;;;;;5050939;28;20701;-66
2021/12/19 11:32:59;;;;;;;5.23;2.70;;;7.70;99.90;;;;;;5051388;28;20568;-66
2021/12/19 11:35:29;;;;;;;7.47;2.70;;;7.60;99.90;;;;;;5051054;28;20203;-66
2021/12/19 11:38:00;;;;;;;7.47;2.80;;;7.70;99.90;;;;;;5061953;28;20304;-66
2021/12/19 11:40:31;;;;;;;4.67;2.90;;;7.70;99.90;;;;;;5071798;28;20648;-66
2021/12/19 11:43:02;;;;;;;5.13;2.57;;;7.70;99.90;;;;;;5054374;28;20202;-66
2021/12/19 11:45:35;;;;;;;5.50;2.27;;;7.70;99.90;;;;;;5052353;28;20944;-65
2021/12/19 11:48:16;;;;;;;5.47;2.23;;;7.70;99.90;;;;;;5050640;28;20210;-66
2021/12/19 11:50:48;;;;;;;4.43;2.57;;;7.80;99.90;;;;;;5063456;28;20241;-66
2021/12/19 11:53:26;;;;;;;6.77;2.43;;;7.70;99.90;;;;;;5053252;28;20199;-66
2021/12/19 11:55:56;;;;;;;7.10;2.60;;;7.80;99.90;;;;;;5051626;28;20218;-66
2021/12/19 11:58:32;;;;;;;7.07;3.20;;;7.70;99.90;;;;;;5060960;28;20208;-66
2021/12/19 12:01:06;;;;;;;5.87;2.90;;;7.70;99.90;;;;;;5071905;28;20233;-66
2021/12/19 12:03:42;;;;;;;4.90;2.67;;;7.70;99.90;;;;;;5050701;28;20200;-66
2021/12/19 12:06:39;;;;;;;5.17;3.20;;;7.70;99.90;;;;;;5067645;28;20309;-65
2021/12/19 12:09:29;;;;;;;5.00;3.20;;;7.70;99.90;;;;;;5069441;28;20313;-66
2021/12/19 12:12:23;;;;;;;5.77;3.30;;;7.70;99.90;;;;;;5051014;28;20661;-66
2021/12/19 12:15:01;;;;;;;6.97;2.87;;;7.70;99.90;;;;;;5037230;28;20552;-66
2021/12/19 12:17:35;;;;;;;5.97;3.07;;;7.70;99.90;;;;;;5051521;28;20242;-66
2021/12/19 12:20:13;;;;;;;5.57;2.40;;;7.60;99.90;;;;;;5063559;28;20195;-66
2021/12/19 12:22:50;;;;;;;8.23;2.57;;;7.60;99.90;;;;;;5053437;28;20217;-66
2021/12/19 12:25:20;;;;;;;7.77;2.67;;;7.60;99.90;;;;;;5044884;28;20205;-66
2021/12/19 12:27:51;;;;;;;9.63;3.20;;;7.60;99.90;;;;;;5054461;28;20272;-66
2021/12/19 12:30:23;;;;;;;7.67;2.60;;;7.70;99.90;;;;;;5044090;28;20233;-66
2021/12/19 12:32:52;;;;;;;5.70;2.50;;;7.70;99.90;;;;;;5053257;28;20574;-66
2021/12/19 12:35:20;;;;;;;7.50;2.93;;;7.70;99.90;;;;;;5062534;28;20648;-66
2021/12/19 12:37:48;;;;;;;7.17;2.50;;;7.80;99.90;;;;;;5074343;28;20648;-66
2021/12/19 12:40:28;;;;;;;5.87;3.13;;;7.80;99.90;;;;;;5062973;28;20608;-66
2021/12/19 12:43:09;;;;;;;7.27;3.50;;;7.80;99.90;;;;;;5044397;28;20600;-66
2021/12/19 12:46:06;;;;;;;4.90;3.00;;;7.80;99.90;;;;;;5054944;28;20203;-66
2021/12/19 12:48:42;;;;;;;7.60;2.73;;;7.80;99.90;;;;;;5054862;28;20203;-66
2021/12/19 12:51:11;;;;;;;6.67;3.10;;;7.80;99.90;;;;;;5058152;28;20223;-66
2021/12/19 12:53:42;;;;;;;8.47;3.60;;;7.80;99.90;;;;;;5055942;28;20203;-67
2021/12/19 12:56:13;;;;;;;6.40;2.93;;;7.80;99.90;;;;;;5057392;28;20232;-66
2021/12/19 12:58:44;;;;;;;7.67;2.80;;;7.80;99.90;;;;;;5054223;28;20221;-66
2021/12/19 13:01:27;;;;;;;7.57;3.20;;;7.80;99.90;;;;;;5058177;28;20208;-66
2021/12/19 13:04:02;;;;;;;5.80;2.30;;;7.80;99.90;;;;;;5051946;28;20195;-66
2021/12/19 13:06:59;;;;;;;8.33;3.10;;;7.80;99.90;;;;;;5053733;28;20199;-66
2021/12/19 13:09:32;;;;;;;7.60;3.13;;;7.80;99.90;;;;;;5050667;28;20223;-66
2021/12/19 13:12:12;;;;;;;5.57;3.17;;;7.80;99.90;;;;;;5053229;28;20199;-66
2021/12/19 13:14:40;;;;;;;7.63;4.23;;;7.80;99.90;;;;;;5061744;28;20642;-66
2021/12/19 13:17:09;;;;;;;9.90;3.97;;;7.80;99.90;;;;;;5055474;28;20203;-66
2021/12/19 13:19:53;;;;;;;12.63;3.13;;;7.80;99.90;;;;;;5049744;28;20581;-66
2021/12/19 13:22:29;;;;;;;7.83;2.70;;;7.80;99.90;;;;;;5050018;28;20299;-66
2021/12/19 13:24:58;;;;;;;7.17;3.13;;;7.70;99.90;;;;;;5051287;28;20200;-66
2021/12/19 13:27:28;;;;;;;8.70;2.63;;;7.70;99.90;;;;;;5063805;28;20214;-66
2021/12/19 13:30:05;;;;;;;8.57;3.10;;;7.80;99.90;;;;;;5051950;28;20218;-66
2021/12/19 13:32:35;;;;;;;10.10;3.13;;;7.70;99.90;;;;;;5051687;28;20217;-66
2021/12/19 13:35:05;;;;;;;11.17;3.23;;;7.80;99.90;;;;;;5054061;28;20214;-66
2021/12/19 13:37:34;;;;;;;8.60;2.87;;;7.80;99.90;;;;;;5049279;28;20211;-66
2021/12/19 13:40:13;;;;;;;6.47;3.03;;;7.80;99.90;;;;;;5054321;28;20692;-66
2021/12/19 13:42:46;;;;;;;6.80;2.30;;;7.80;99.90;;;;;;5048751;28;20209;-66
2021/12/19 13:45:35;;;;;;;9.20;3.10;;;7.80;99.90;;;;;;5060644;28;20202;-66
2021/12/19 13:48:04;;;;;;;16.97;3.77;;;7.80;99.90;;;;;;5054001;28;20211;-66
2021/12/19 13:50:37;;;;;;;8.93;2.67;;;7.80;99.90;;;;;;5056543;28;20222;-66
2021/12/19 13:53:05;;;;;;;8.90;3.03;;;7.70;99.90;;;;;;5056811;28;20213;-67
2021/12/19 13:55:44;;;;;;;10.13;3.33;;;7.80;99.90;;;;;;5053322;28;20210;-66
2021/12/19 13:58:12;;;;;;;9.30;3.60;;;7.80;99.90;;;;;;5054188;28;20685;-66